Terminal Aerodrome Forecast
Issued by NWS Topeka, KS

Home | Current Version | Previous Version | Text Only | Print | Product List | Glossary Off
Versions: 1 2 3 4 5 6 7 8 9 10 11 12 13 14

410
FTUS43 KTOP 221500 AAB
TAFTOP
TAF AMD
KTOP 221500Z 2215/2312 18012G20KT P6SM FEW200
     FM230600 36008KT P6SM VCTS BKN050CB
     FM230900 01006KT P6SM VCTS BKN030CB=

USA.gov is the U.S. government's official web portal to all federal, state and local government web resources and services.